createdAt,value
2018-04-12T00:00:25.552Z,14.41
2018-04-12T00:01:25.694Z,14.44
2018-04-12T00:02:25.929Z,14.45
2018-04-12T00:03:25.997Z,14.38
2018-04-12T00:04:26.134Z,14.31
2018-04-12T00:05:26.276Z,14.27
2018-04-12T00:06:26.605Z,14.28
2018-04-12T00:07:26.487Z,14.27
2018-04-12T00:08:26.836Z,14.30
2018-04-12T00:09:26.994Z,14.27
2018-04-12T00:10:26.899Z,14.33
2018-04-12T00:11:27.039Z,14.37
2018-04-12T00:12:27.174Z,14.40
2018-04-12T00:13:27.312Z,14.44
2018-04-12T00:14:27.451Z,14.26
2018-04-12T00:15:27.646Z,14.22
2018-04-12T00:16:27.713Z,14.30
2018-04-12T00:17:28.086Z,14.45
2018-04-12T00:18:27.967Z,14.45
2018-04-12T00:19:28.108Z,14.48
2018-04-12T00:20:28.248Z,14.52
2018-04-12T00:21:28.385Z,14.51
2018-04-12T00:22:28.525Z,14.40
2018-04-12T00:23:28.666Z,14.56
2018-04-12T00:24:28.799Z,14.59
2018-04-12T00:25:28.937Z,14.69
2018-04-12T00:26:29.079Z,14.59
2018-04-12T00:27:29.587Z,14.59
2018-04-12T00:28:29.367Z,14.59
2018-04-12T00:29:29.505Z,14.49
2018-04-12T00:30:29.650Z,14.45
2018-04-12T00:31:29.783Z,14.36
2018-04-12T00:32:29.928Z,14.44
2018-04-12T00:33:30.070Z,14.30
2018-04-12T00:34:30.208Z,14.41
2018-04-12T00:35:30.450Z,14.40
2018-04-12T00:36:30.465Z,14.30
2018-04-12T00:37:31.118Z,14.23
2018-04-12T00:38:30.803Z,14.26
2018-04-12T00:39:30.941Z,14.30
2018-04-12T00:40:31.081Z,14.26
2018-04-12T00:41:31.218Z,14.33
2018-04-12T00:42:31.355Z,14.31
2018-04-12T00:43:31.493Z,14.27
2018-04-12T00:44:31.631Z,14.22
2018-04-12T00:45:31.782Z,14.22
2018-04-12T00:46:32.083Z,14.27
2018-04-12T00:47:32.103Z,14.21
2018-04-12T00:48:32.246Z,14.27
2018-04-12T00:49:32.382Z,14.12
2018-04-12T00:50:32.526Z,14.30
2018-04-12T00:51:32.663Z,14.40
2018-04-12T00:52:32.801Z,14.28
2018-04-12T00:53:32.939Z,14.31
2018-04-12T00:54:33.084Z,14.36
2018-04-12T00:55:33.223Z,14.45
2018-04-12T00:56:33.360Z,14.46
2018-04-12T00:57:33.671Z,14.40
2018-04-12T00:58:33.635Z,14.26
2018-04-12T00:59:33.779Z,14.26
2018-04-12T01:00:33.917Z,14.23
2018-04-12T01:01:34.049Z,14.15
2018-04-12T01:02:34.190Z,14.27
2018-04-12T01:03:34.329Z,14.18
2018-04-12T01:04:34.472Z,14.08
2018-04-12T01:05:34.616Z,14.13
2018-04-12T01:06:34.751Z,14.00
2018-04-12T01:07:34.897Z,14.16
2018-04-12T01:08:35.034Z,14.15
2018-04-12T01:09:35.178Z,14.09
2018-04-12T01:10:35.316Z,14.16
2018-04-12T01:11:35.451Z,14.15
2018-04-12T01:12:35.597Z,14.28
2018-04-12T01:13:35.732Z,14.31
2018-04-12T01:14:35.865Z,14.33
2018-04-12T01:15:36.013Z,14.22
2018-04-12T01:16:36.152Z,14.23
2018-04-12T01:17:36.285Z,14.27
2018-04-12T01:18:36.429Z,14.23
2018-04-12T01:19:36.569Z,14.22
2018-04-12T01:20:36.713Z,14.21
2018-04-12T01:21:36.850Z,14.26
2018-04-12T01:22:36.989Z,14.28
2018-04-12T01:23:37.125Z,14.19
2018-04-12T01:24:37.265Z,14.22
2018-04-12T01:25:37.401Z,14.12
2018-04-12T01:26:37.542Z,14.22
2018-04-12T01:27:37.685Z,14.15
2018-04-12T01:28:37.822Z,14.08
2018-04-12T01:29:37.977Z,14.05
2018-04-12T01:30:38.127Z,13.97
2018-04-12T01:31:38.255Z,14.03
2018-04-12T01:32:38.395Z,14.19
2018-04-12T01:33:38.529Z,14.05
2018-04-12T01:34:38.668Z,14.15
2018-04-12T01:35:38.810Z,14.13
2018-04-12T01:36:38.944Z,14.23
2018-04-12T01:37:39.084Z,14.22
2018-04-12T01:38:39.224Z,14.12
2018-04-12T01:39:39.369Z,14.05
2018-04-12T01:40:39.497Z,14.31
2018-04-12T01:41:39.634Z,14.33
2018-04-12T01:42:39.774Z,14.12
2018-04-12T01:43:39.912Z,14.26
2018-04-12T01:44:40.052Z,14.28
2018-04-12T01:45:40.180Z,14.30
2018-04-12T01:46:40.320Z,14.08
2018-04-12T01:47:40.453Z,14.05
2018-04-12T01:48:40.592Z,14.12
2018-04-12T01:49:40.731Z,14.18
2018-04-12T01:50:40.873Z,14.16
2018-04-12T01:51:41.024Z,14.23
2018-04-12T01:52:41.152Z,14.23
2018-04-12T01:53:41.291Z,14.09
2018-04-12T01:54:41.429Z,14.12
2018-04-12T01:55:41.567Z,13.98
2018-04-12T01:56:41.710Z,14.16
2018-04-12T01:57:41.850Z,14.27
2018-04-12T01:58:41.990Z,14.19
2018-04-12T01:59:42.130Z,14.18
2018-04-12T02:00:42.272Z,14.30
2018-04-12T02:01:42.411Z,14.18
2018-04-12T02:02:42.548Z,14.16
2018-04-12T02:03:42.684Z,14.13
2018-04-12T02:04:42.821Z,14.28
2018-04-12T02:05:42.964Z,14.15
2018-04-12T02:06:43.106Z,14.22
2018-04-12T02:07:43.237Z,14.15
2018-04-12T02:08:43.380Z,14.16
2018-04-12T02:09:43.516Z,14.13
2018-04-12T02:10:43.671Z,14.26
2018-04-12T02:11:43.826Z,14.21
2018-04-12T02:12:43.964Z,14.26
2018-04-12T02:13:44.110Z,14.21
2018-04-12T02:14:44.249Z,14.26
2018-04-12T02:15:44.395Z,14.26
2018-04-12T02:16:44.540Z,14.27
2018-04-12T02:17:44.683Z,14.26
2018-04-12T02:18:44.828Z,14.13
2018-04-12T02:19:44.968Z,14.19
2018-04-12T02:20:45.100Z,14.11
2018-04-12T02:21:45.235Z,14.12
2018-04-12T02:22:45.429Z,14.23
2018-04-12T02:23:45.562Z,14.21
2018-04-12T02:24:45.703Z,14.22
2018-04-12T02:25:45.915Z,14.18
2018-04-12T02:26:45.930Z,14.23
2018-04-12T02:27:46.075Z,14.08
2018-04-12T02:28:46.216Z,14.16
2018-04-12T02:29:46.351Z,14.12
2018-04-12T02:30:46.489Z,14.30
2018-04-12T02:31:46.625Z,14.27
2018-04-12T02:32:46.769Z,14.27
2018-04-12T02:33:46.915Z,14.27
2018-04-12T02:34:47.041Z,14.12
2018-04-12T02:35:47.183Z,14.28
2018-04-12T02:36:47.319Z,14.12
2018-04-12T02:37:47.468Z,14.12
2018-04-12T02:38:47.599Z,14.18
2018-04-12T02:39:47.739Z,14.05
2018-04-12T02:40:47.876Z,14.15
2018-04-12T02:41:48.015Z,14.28
2018-04-12T02:42:48.158Z,14.27
2018-04-12T02:43:48.293Z,14.28
2018-04-12T02:44:48.443Z,14.34
2018-04-12T02:45:48.574Z,14.36
2018-04-12T02:46:48.710Z,14.44
2018-04-12T02:47:48.864Z,14.34
2018-04-12T02:48:48.998Z,14.44
2018-04-12T02:49:49.143Z,14.33
2018-04-12T02:50:49.279Z,14.27
2018-04-12T02:51:49.416Z,14.45
2018-04-12T02:52:49.558Z,14.40
2018-04-12T02:53:49.696Z,14.46
2018-04-12T02:54:49.881Z,14.38
2018-04-12T02:55:50.016Z,14.36
2018-04-12T02:56:50.159Z,14.23
2018-04-12T02:57:50.300Z,14.18
2018-04-12T02:58:50.435Z,14.21
2018-04-12T02:59:50.584Z,14.27
2018-04-12T03:00:50.720Z,14.18
2018-04-12T03:01:50.864Z,14.13
2018-04-12T03:02:51.002Z,14.18
2018-04-12T03:03:51.144Z,14.09
2018-04-12T03:04:51.278Z,14.22
2018-04-12T03:05:51.420Z,14.22
2018-04-12T03:06:51.581Z,14.27
2018-04-12T03:07:51.705Z,14.12
2018-04-12T03:08:51.844Z,14.21
2018-04-12T03:09:51.986Z,13.94
2018-04-12T03:10:52.125Z,14.12
2018-04-12T03:11:52.262Z,14.08
2018-04-12T03:12:52.406Z,14.09
2018-04-12T03:13:52.548Z,13.96
2018-04-12T03:14:52.681Z,14.05
2018-04-12T03:15:52.819Z,13.98
2018-04-12T03:16:52.963Z,14.12
2018-04-12T03:17:53.101Z,14.04
2018-04-12T03:18:53.242Z,14.12
2018-04-12T03:19:53.380Z,14.11
2018-04-12T03:20:53.532Z,14.15
2018-04-12T03:21:53.663Z,14.08
2018-04-12T03:22:53.810Z,14.01
2018-04-12T03:23:53.944Z,14.00
2018-04-12T03:24:54.081Z,14.13
2018-04-12T03:25:54.223Z,14.04
2018-04-12T03:26:54.366Z,14.16
2018-04-12T03:27:54.501Z,14.11
2018-04-12T03:28:54.639Z,14.04
2018-04-12T03:29:54.813Z,14.13
2018-04-12T03:30:54.912Z,14.13
2018-04-12T03:31:55.061Z,14.16
2018-04-12T03:32:55.184Z,14.26
2018-04-12T03:33:55.327Z,14.31
2018-04-12T03:34:55.470Z,14.23
2018-04-12T03:35:55.606Z,14.28
2018-04-12T03:36:55.746Z,14.37
2018-04-12T03:37:55.891Z,14.34
2018-04-12T03:38:56.033Z,14.27
2018-04-12T03:39:56.163Z,14.21
2018-04-12T03:40:56.306Z,14.21
2018-04-12T03:41:56.438Z,14.13
2018-04-12T03:42:56.580Z,14.27
2018-04-12T03:43:56.716Z,14.21
2018-04-12T03:44:56.859Z,14.18
2018-04-12T03:45:56.995Z,14.23
2018-04-12T03:46:57.132Z,13.98
2018-04-12T03:47:57.268Z,14.12
2018-04-12T03:48:57.409Z,14.12
2018-04-12T03:49:57.548Z,14.18
2018-04-12T03:50:58.202Z,14.04
2018-04-12T03:51:57.868Z,13.91
2018-04-12T03:52:58.008Z,14.04
2018-04-12T03:53:58.184Z,14.05
2018-04-12T03:54:58.358Z,14.00
2018-04-12T03:55:58.486Z,13.96
2018-04-12T03:56:58.623Z,14.00
2018-04-12T03:57:58.759Z,13.97
2018-04-12T03:58:58.904Z,13.97
2018-04-12T03:59:59.044Z,13.90
2018-04-12T04:00:59.181Z,13.97
2018-04-12T04:01:59.317Z,14.01
2018-04-12T04:02:59.464Z,14.13
2018-04-12T04:03:59.609Z,14.03
2018-04-12T04:04:59.741Z,14.18
2018-04-12T04:05:59.881Z,14.05
2018-04-12T04:07:00.035Z,14.26
2018-04-12T04:08:00.159Z,14.16
2018-04-12T04:09:00.302Z,14.26
2018-04-12T04:10:00.441Z,14.12
2018-04-12T04:11:00.574Z,14.04
2018-04-12T04:12:00.714Z,14.18
2018-04-12T04:13:00.854Z,14.27
2018-04-12T04:14:00.991Z,14.19
2018-04-12T04:15:01.132Z,13.97
2018-04-12T04:16:01.278Z,14.09
2018-04-12T04:17:01.421Z,13.88
2018-04-12T04:18:01.564Z,14.08
2018-04-12T04:19:01.705Z,14.12
2018-04-12T04:20:01.848Z,14.09
2018-04-12T04:21:02.001Z,14.05
2018-04-12T04:22:02.135Z,14.09
2018-04-12T04:23:02.274Z,14.22
2018-04-12T04:24:02.406Z,14.03
2018-04-12T04:25:02.543Z,14.16
2018-04-12T04:26:02.677Z,14.08
2018-04-12T04:27:03.705Z,14.00
2018-04-12T04:28:02.941Z,13.91
2018-04-12T04:29:03.085Z,13.98
2018-04-12T04:30:03.231Z,13.94
2018-04-12T04:31:03.367Z,13.96
2018-04-12T04:32:03.506Z,13.94
2018-04-12T04:33:03.643Z,13.90
2018-04-12T04:34:03.784Z,13.80
2018-04-12T04:35:04.725Z,13.85
2018-04-12T04:36:04.004Z,13.76
2018-04-12T04:37:04.157Z,13.75
2018-04-12T04:38:05.220Z,13.72
2018-04-12T04:39:04.384Z,13.72
2018-04-12T04:40:04.520Z,13.79
2018-04-12T04:41:04.657Z,13.78
2018-04-12T04:42:04.796Z,13.73
2018-04-12T04:43:04.936Z,13.75
2018-04-12T04:44:05.074Z,13.75
2018-04-12T04:45:05.221Z,13.80
2018-04-12T04:46:05.359Z,13.78
2018-04-12T04:47:05.501Z,13.71
2018-04-12T04:48:05.643Z,13.65
2018-04-12T04:49:05.779Z,13.76
2018-04-12T04:50:05.910Z,13.79
2018-04-12T04:51:06.045Z,13.76
2018-04-12T04:52:06.185Z,13.64
2018-04-12T04:53:06.326Z,13.72
2018-04-12T04:54:06.472Z,13.76
2018-04-12T04:55:06.611Z,13.75
2018-04-12T04:56:06.749Z,13.68
2018-04-12T04:57:06.883Z,13.75
2018-04-12T04:58:07.029Z,13.80
2018-04-12T04:59:07.165Z,13.90
2018-04-12T05:00:07.296Z,13.85
2018-04-12T05:01:07.436Z,13.82
2018-04-12T05:02:07.607Z,13.83
2018-04-12T05:03:07.711Z,13.90
2018-04-12T05:04:07.860Z,13.80
2018-04-12T05:05:08.008Z,13.86
2018-04-12T05:06:08.138Z,13.96
2018-04-12T05:07:08.282Z,13.97
2018-04-12T05:08:08.418Z,13.93
2018-04-12T05:09:08.561Z,13.90
2018-04-12T05:10:08.697Z,13.97
2018-04-12T05:11:08.838Z,13.96
2018-04-12T05:12:08.963Z,13.90
2018-04-12T05:13:09.096Z,13.98
2018-04-12T05:14:09.241Z,13.96
2018-04-12T05:15:09.371Z,13.91
2018-04-12T05:16:09.512Z,13.94
2018-04-12T05:17:09.652Z,13.86
2018-04-12T05:18:09.784Z,13.96
2018-04-12T05:19:09.924Z,13.85
2018-04-12T05:20:10.063Z,13.96
2018-04-12T05:21:10.199Z,13.97
2018-04-12T05:22:10.345Z,13.91
2018-04-12T05:23:10.487Z,13.85
2018-04-12T05:24:10.626Z,13.86
2018-04-12T05:25:10.764Z,13.90
2018-04-12T05:26:10.904Z,13.83
2018-04-12T05:27:11.044Z,13.86
2018-04-12T05:28:11.187Z,13.94
2018-04-12T05:29:11.325Z,13.96
2018-04-12T05:30:11.475Z,14.01
2018-04-12T05:31:11.610Z,14.15
2018-04-12T05:32:11.743Z,14.19
2018-04-12T05:33:11.877Z,14.16
2018-04-12T05:34:12.016Z,14.05
2018-04-12T05:35:12.156Z,14.04
2018-04-12T05:36:12.299Z,14.05
2018-04-12T05:37:12.438Z,14.15
2018-04-12T05:38:12.580Z,14.08
2018-04-12T05:39:12.720Z,14.09
2018-04-12T05:40:12.860Z,14.11
2018-04-12T05:41:12.996Z,14.13
2018-04-12T05:42:13.143Z,14.21
2018-04-12T05:43:13.279Z,14.21
2018-04-12T05:44:13.415Z,14.18
2018-04-12T05:45:13.562Z,14.23
2018-04-12T05:46:13.703Z,14.21
2018-04-12T05:47:13.840Z,14.26
2018-04-12T05:48:13.985Z,14.37
2018-04-12T05:49:14.115Z,14.37
2018-04-12T05:50:14.250Z,14.41
2018-04-12T05:51:14.395Z,14.53
2018-04-12T05:52:14.529Z,14.51
2018-04-12T05:53:14.669Z,14.48
2018-04-12T05:54:14.813Z,14.55
2018-04-12T05:55:14.956Z,14.64
2018-04-12T05:56:15.103Z,14.66
2018-04-12T05:57:15.303Z,14.77
2018-04-12T05:58:15.364Z,14.82
2018-04-12T05:59:15.499Z,14.71
2018-04-12T06:00:15.635Z,14.78
2018-04-12T06:01:15.772Z,14.73
2018-04-12T06:02:15.910Z,14.67
2018-04-12T06:03:16.048Z,14.73
2018-04-12T06:04:16.182Z,14.74
2018-04-12T06:05:16.343Z,14.70
2018-04-12T06:06:16.476Z,14.73
2018-04-12T06:07:16.618Z,14.77
2018-04-12T06:08:16.753Z,14.70
2018-04-12T06:09:16.890Z,14.73
2018-04-12T06:10:17.032Z,14.74
2018-04-12T06:11:17.175Z,14.79
2018-04-12T06:12:17.316Z,14.85
2018-04-12T06:13:17.452Z,14.87
2018-04-12T06:14:17.592Z,14.93
2018-04-12T06:15:17.732Z,14.87
2018-04-12T06:16:17.873Z,14.82
2018-04-12T06:17:18.016Z,14.85
2018-04-12T06:18:18.157Z,14.77
2018-04-12T06:19:18.301Z,14.87
2018-04-12T06:20:18.438Z,14.78
2018-04-12T06:21:18.587Z,14.83
2018-04-12T06:22:18.721Z,14.82
2018-04-12T06:23:18.862Z,14.82
2018-04-12T06:24:19.013Z,14.73
2018-04-12T06:25:19.136Z,14.89
2018-04-12T06:26:19.279Z,14.90
2018-04-12T06:27:19.424Z,15.04
2018-04-12T06:28:19.556Z,15.04
2018-04-12T06:29:19.791Z,15.03
2018-04-12T06:30:19.812Z,15.07
2018-04-12T06:31:19.949Z,14.99
2018-04-12T06:32:20.101Z,14.93
2018-04-12T06:33:20.225Z,15.07
2018-04-12T06:34:20.363Z,15.01
2018-04-12T06:35:20.509Z,15.12
2018-04-12T06:36:20.647Z,15.07
2018-04-12T06:37:20.791Z,14.97
2018-04-12T06:38:20.922Z,14.95
2018-04-12T06:39:21.064Z,15.04
2018-04-12T06:40:21.208Z,15.04
2018-04-12T06:41:21.356Z,15.11
2018-04-12T06:42:21.497Z,15.10
2018-04-12T06:43:21.631Z,15.04
2018-04-12T06:44:21.775Z,15.01
2018-04-12T06:45:21.903Z,14.90
2018-04-12T06:46:22.043Z,15.14
2018-04-12T06:47:22.183Z,15.05
2018-04-12T06:48:22.322Z,15.10
2018-04-12T06:49:22.463Z,15.03
2018-04-12T06:50:22.607Z,14.97
2018-04-12T06:51:22.747Z,14.97
2018-04-12T06:52:22.883Z,14.85
2018-04-12T06:53:23.028Z,14.82
2018-04-12T06:54:23.160Z,14.79
2018-04-12T06:55:23.306Z,14.77
2018-04-12T06:56:23.453Z,14.79
2018-04-12T06:57:23.591Z,14.83
2018-04-12T06:58:23.734Z,14.73
2018-04-12T06:59:23.868Z,14.78
2018-04-12T07:00:24.008Z,14.79
2018-04-12T07:01:24.164Z,14.87
2018-04-12T07:02:24.302Z,14.85
2018-04-12T07:03:24.438Z,14.85
2018-04-12T07:04:24.581Z,14.82
2018-04-12T07:05:24.725Z,14.89
2018-04-12T07:06:24.861Z,14.85
2018-04-12T07:07:25.015Z,14.96
2018-04-12T07:08:25.154Z,14.92
2018-04-12T07:09:25.295Z,14.93
2018-04-12T07:10:26.220Z,14.95
2018-04-12T07:11:25.606Z,14.90
2018-04-12T07:12:25.744Z,14.90
2018-04-12T07:13:25.927Z,14.93
2018-04-12T07:14:26.064Z,14.96
2018-04-12T07:15:26.201Z,15.11
2018-04-12T07:16:26.343Z,15.11
2018-04-12T07:17:26.483Z,15.15
2018-04-12T07:18:26.623Z,15.26
2018-04-12T07:19:26.755Z,15.32
2018-04-12T07:20:26.898Z,15.36
2018-04-12T07:21:27.044Z,15.48
2018-04-12T07:22:27.184Z,15.51
2018-04-12T07:23:27.321Z,15.62
2018-04-12T07:24:27.468Z,15.70
2018-04-12T07:25:28.221Z,15.81
2018-04-12T07:26:27.778Z,15.80
2018-04-12T07:27:27.909Z,15.95
2018-04-12T07:28:28.090Z,15.95
2018-04-12T07:29:28.206Z,15.99
2018-04-12T07:30:28.350Z,16.06
2018-04-12T07:31:28.489Z,16.10
2018-04-12T07:32:28.625Z,16.02
2018-04-12T07:33:28.760Z,16.02
2018-04-12T07:34:28.907Z,15.93
2018-04-12T07:35:29.039Z,15.80
2018-04-12T07:36:29.175Z,15.85
2018-04-12T07:37:29.308Z,15.87
2018-04-12T07:38:29.460Z,15.85
2018-04-12T07:39:29.601Z,15.80
2018-04-12T07:40:29.738Z,15.90
2018-04-12T07:41:29.873Z,15.91
2018-04-12T07:42:30.018Z,15.99
2018-04-12T07:43:30.163Z,15.96
2018-04-12T07:44:30.312Z,15.93
2018-04-12T07:45:30.453Z,15.98
2018-04-12T07:46:30.589Z,15.98
2018-04-12T07:47:30.733Z,15.90
2018-04-12T07:48:30.868Z,15.83
2018-04-12T07:49:31.010Z,15.85
2018-04-12T07:50:31.150Z,15.85
2018-04-12T07:51:31.308Z,15.91
2018-04-12T07:52:31.437Z,15.88
2018-04-12T07:53:31.570Z,15.84
2018-04-12T07:54:31.719Z,15.70
2018-04-12T07:55:31.858Z,15.80
2018-04-12T07:56:32.001Z,15.80
2018-04-12T07:57:32.135Z,15.83
2018-04-12T07:58:32.278Z,15.83
2018-04-12T07:59:32.407Z,15.78
2018-04-12T08:00:32.554Z,15.72
2018-04-12T08:01:32.693Z,15.78
2018-04-12T08:02:32.836Z,15.69
2018-04-12T08:03:32.980Z,15.76
2018-04-12T08:04:33.121Z,15.84
2018-04-12T08:05:33.263Z,15.69
2018-04-12T08:06:33.413Z,15.81
2018-04-12T08:07:33.538Z,15.81
2018-04-12T08:08:33.678Z,15.78
2018-04-12T08:09:33.840Z,15.80
2018-04-12T08:10:33.987Z,15.88
2018-04-12T08:11:34.127Z,15.84
2018-04-12T08:12:34.285Z,15.91
2018-04-12T08:13:34.424Z,15.91
2018-04-12T08:14:34.557Z,15.84
2018-04-12T08:15:34.700Z,15.84
2018-04-12T08:16:34.840Z,15.84
2018-04-12T08:17:34.986Z,15.80
2018-04-12T08:18:35.136Z,15.85
2018-04-12T08:19:35.270Z,15.99
2018-04-12T08:20:35.421Z,16.03
2018-04-12T08:21:35.565Z,16.05
2018-04-12T08:22:35.704Z,16.05
2018-04-12T08:23:35.868Z,16.13
2018-04-12T08:24:36.037Z,16.14
2018-04-12T08:25:36.179Z,16.16
2018-04-12T08:26:36.326Z,16.21
2018-04-12T08:27:36.449Z,16.32
2018-04-12T08:28:36.590Z,16.32
2018-04-12T08:29:36.728Z,16.39
2018-04-12T08:30:36.871Z,16.44
2018-04-12T08:31:37.013Z,16.49
2018-04-12T08:32:37.146Z,16.47
2018-04-12T08:33:37.288Z,16.42
2018-04-12T08:34:37.437Z,16.54
2018-04-12T08:35:37.580Z,16.46
2018-04-12T08:36:37.789Z,16.46
2018-04-12T08:37:37.802Z,16.43
2018-04-12T08:38:37.942Z,16.43
2018-04-12T08:39:38.071Z,16.32
2018-04-12T08:40:38.209Z,16.33
2018-04-12T08:41:38.342Z,16.32
2018-04-12T08:42:38.483Z,16.36
2018-04-12T08:43:38.632Z,16.40
2018-04-12T08:44:38.765Z,16.44
2018-04-12T08:45:38.906Z,16.51
2018-04-12T08:46:39.046Z,16.59
2018-04-12T08:47:39.190Z,16.74
2018-04-12T08:48:39.322Z,16.70
2018-04-12T08:49:39.467Z,16.80
2018-04-12T08:50:39.607Z,16.83
2018-04-12T08:51:39.743Z,16.91
2018-04-12T08:52:39.883Z,17.01
2018-04-12T08:53:40.025Z,17.14
2018-04-12T08:54:40.162Z,17.06
2018-04-12T08:55:40.299Z,17.12
2018-04-12T08:56:40.443Z,17.20
2018-04-12T08:57:40.583Z,17.17
2018-04-12T08:58:40.723Z,17.27
2018-04-12T08:59:40.896Z,17.28
2018-04-12T09:00:41.011Z,17.22
2018-04-12T09:01:41.151Z,17.16
2018-04-12T09:02:41.294Z,17.22
2018-04-12T09:03:41.437Z,17.27
2018-04-12T09:04:41.573Z,17.28
2018-04-12T09:05:41.725Z,17.32
2018-04-12T09:06:41.870Z,17.39
2018-04-12T09:07:42.019Z,17.32
2018-04-12T09:08:42.165Z,17.52
2018-04-12T09:09:42.296Z,17.59
2018-04-12T09:10:42.450Z,17.59
2018-04-12T09:11:42.581Z,17.71
2018-04-12T09:12:42.719Z,17.78
2018-04-12T09:13:42.865Z,17.81
2018-04-12T09:14:43.006Z,17.76
2018-04-12T09:15:43.152Z,17.84
2018-04-12T09:16:43.293Z,17.86
2018-04-12T09:17:43.443Z,17.86
2018-04-12T09:18:43.586Z,17.83
2018-04-12T09:19:43.725Z,17.94
2018-04-12T09:20:43.869Z,18.03
2018-04-12T09:21:44.009Z,18.01
2018-04-12T09:22:44.149Z,18.06
2018-04-12T09:23:44.289Z,18.08
2018-04-12T09:24:44.430Z,18.15
2018-04-12T09:25:44.571Z,18.09
2018-04-12T09:26:44.724Z,18.21
2018-04-12T09:27:44.921Z,18.24
2018-04-12T09:28:44.998Z,18.18
2018-04-12T09:29:45.138Z,18.18
2018-04-12T09:30:45.282Z,18.28
2018-04-12T09:31:45.427Z,18.38
2018-04-12T09:32:45.569Z,18.33
2018-04-12T09:33:45.707Z,18.45
2018-04-12T09:34:45.858Z,18.51
2018-04-12T09:35:45.994Z,18.49
2018-04-12T09:36:46.145Z,18.54
2018-04-12T09:37:46.286Z,18.46
2018-04-12T09:38:46.421Z,18.38
2018-04-12T09:39:46.565Z,18.46
2018-04-12T09:40:46.706Z,18.46
2018-04-12T09:41:46.850Z,18.56
2018-04-12T09:42:46.996Z,18.64
2018-04-12T09:43:47.133Z,18.63
2018-04-12T09:44:47.282Z,18.74
2018-04-12T09:45:47.412Z,18.71
2018-04-12T09:46:47.556Z,18.74
2018-04-12T09:47:47.696Z,18.71
2018-04-12T09:48:47.831Z,18.78
2018-04-12T09:49:47.967Z,18.68
2018-04-12T09:50:48.111Z,18.67
2018-04-12T09:51:48.294Z,18.67
2018-04-12T09:52:48.385Z,18.67
2018-04-12T09:53:48.528Z,18.71
2018-04-12T09:54:48.665Z,18.79
2018-04-12T09:55:48.802Z,18.81
2018-04-12T09:56:48.947Z,18.86
2018-04-12T09:57:49.080Z,19.05
2018-04-12T09:58:49.225Z,19.15
2018-04-12T09:59:49.382Z,19.16
2018-04-12T10:00:49.516Z,19.20
2018-04-12T10:01:49.660Z,19.37
2018-04-12T10:02:49.806Z,19.39
2018-04-12T10:03:49.949Z,19.38
2018-04-12T10:04:50.144Z,19.49
2018-04-12T10:05:50.282Z,19.53
2018-04-12T10:06:50.422Z,19.52
2018-04-12T10:07:50.560Z,19.63
2018-04-12T10:08:50.722Z,19.71
2018-04-12T10:09:50.845Z,19.84
2018-04-12T10:10:50.993Z,19.89
2018-04-12T10:11:51.136Z,19.90
2018-04-12T10:12:51.278Z,19.87
2018-04-12T10:13:51.417Z,20.08
2018-04-12T10:14:51.560Z,20.11
2018-04-12T10:15:51.699Z,20.15
2018-04-12T10:16:51.849Z,20.17
2018-04-12T10:17:51.990Z,20.27
2018-04-12T10:18:52.134Z,20.37
2018-04-12T10:19:52.285Z,20.46
2018-04-12T10:20:52.422Z,20.50
2018-04-12T10:21:52.568Z,20.53
2018-04-12T10:22:52.709Z,20.67
2018-04-12T10:23:52.849Z,20.74
2018-04-12T10:24:52.989Z,20.77
2018-04-12T10:25:53.132Z,20.89
2018-04-12T10:26:53.277Z,20.90
2018-04-12T10:27:53.417Z,21.03
2018-04-12T10:28:53.554Z,21.08
2018-04-12T10:29:53.709Z,21.20
2018-04-12T10:30:53.851Z,21.29
2018-04-12T10:31:54.767Z,21.23
2018-04-12T10:32:54.179Z,21.28
2018-04-12T10:33:54.323Z,21.25
2018-04-12T10:34:54.477Z,21.37
2018-04-12T10:35:54.622Z,21.43
2018-04-12T10:36:54.771Z,21.38
2018-04-12T10:37:54.924Z,21.47
2018-04-12T10:38:55.068Z,21.48
2018-04-12T10:39:55.213Z,21.45
2018-04-12T10:40:55.354Z,21.55
2018-04-12T10:41:55.510Z,21.47
2018-04-12T10:42:55.651Z,21.60
2018-04-12T10:43:55.836Z,21.66
2018-04-12T10:44:55.966Z,21.80
2018-04-12T10:45:56.114Z,21.90
2018-04-12T10:46:56.316Z,22.06
2018-04-12T10:47:56.334Z,22.12
2018-04-12T10:48:56.483Z,22.19
2018-04-12T10:49:56.627Z,22.23
2018-04-12T10:50:56.781Z,22.36
2018-04-12T10:51:56.964Z,22.46
2018-04-12T10:52:57.069Z,22.61
2018-04-12T10:53:57.212Z,22.61
2018-04-12T10:54:57.353Z,22.61
2018-04-12T10:55:57.493Z,22.83
2018-04-12T10:56:58.302Z,23.01
2018-04-12T10:57:57.803Z,23.49
2018-04-12T10:58:57.953Z,24.18
2018-04-12T10:59:58.097Z,24.56
2018-04-12T11:00:58.241Z,24.85
2018-04-12T11:01:58.385Z,24.99
2018-04-12T11:02:58.530Z,25.49
2018-04-12T11:03:58.669Z,25.74
2018-04-12T11:04:58.842Z,26.41
2018-04-12T11:05:58.960Z,26.97
2018-04-12T11:06:59.103Z,27.76
2018-04-12T11:07:59.256Z,28.03
2018-04-12T11:08:59.407Z,28.57
2018-04-12T11:09:59.555Z,29.09
2018-04-12T11:10:59.706Z,29.43
2018-04-12T11:11:59.865Z,30.00
2018-04-12T11:13:00.015Z,30.51
2018-04-12T11:14:00.161Z,30.85
2018-04-12T11:15:00.309Z,31.07
2018-04-12T11:16:00.454Z,30.59
2018-04-12T11:17:00.602Z,30.53
2018-04-12T11:18:00.761Z,30.65
2018-04-12T11:19:00.904Z,30.92
2018-04-12T11:20:01.055Z,31.38
2018-04-12T11:21:01.276Z,31.90
2018-04-12T11:22:01.362Z,32.17
2018-04-12T11:23:02.269Z,32.55
2018-04-12T11:24:01.698Z,32.79
2018-04-12T11:25:01.879Z,32.91
2018-04-12T11:26:02.061Z,33.33
2018-04-12T11:27:02.190Z,33.82
2018-04-12T11:28:02.341Z,34.13
2018-04-12T11:29:02.488Z,34.53
2018-04-12T11:30:02.671Z,34.42
2018-04-12T11:31:02.799Z,34.76
2018-04-12T11:32:02.960Z,34.48
2018-04-12T11:33:03.117Z,34.20
2018-04-12T11:34:03.294Z,33.95
2018-04-12T11:35:03.426Z,33.69
2018-04-12T11:36:03.581Z,34.19
2018-04-12T11:37:03.739Z,34.66
2018-04-12T11:38:03.911Z,34.92
2018-04-12T11:39:04.064Z,35.36
2018-04-12T11:40:04.217Z,35.48
2018-04-12T11:41:04.370Z,35.70
2018-04-12T11:42:04.525Z,35.65
2018-04-12T11:43:04.687Z,35.94
2018-04-12T11:44:04.847Z,36.20
2018-04-12T11:45:05.009Z,35.77
2018-04-12T11:46:05.167Z,35.83
2018-04-12T11:47:05.327Z,36.07
2018-04-12T11:48:05.486Z,36.00
2018-04-12T11:49:05.670Z,36.29
2018-04-12T11:50:05.783Z,36.71
2018-04-12T11:51:05.978Z,36.75
2018-04-12T11:52:06.124Z,36.69
2018-04-12T11:53:06.272Z,36.54
2018-04-12T11:54:06.442Z,36.17
2018-04-12T11:55:06.600Z,35.54
2018-04-12T11:56:06.758Z,35.42
2018-04-12T11:57:06.908Z,34.62
2018-04-12T11:58:07.064Z,34.07
2018-04-12T11:59:07.221Z,34.62
2018-04-12T12:00:07.381Z,34.62
2018-04-12T12:01:07.535Z,34.67
2018-04-12T12:02:07.697Z,35.32
2018-04-12T12:03:07.870Z,35.94
2018-04-12T12:04:08.015Z,36.32
2018-04-12T12:05:08.175Z,36.66
2018-04-12T12:06:08.336Z,36.88
2018-04-12T12:07:08.495Z,37.17
2018-04-12T12:08:08.657Z,37.47
2018-04-12T12:09:08.810Z,37.39
2018-04-12T12:10:08.959Z,37.50
2018-04-12T12:11:09.116Z,38.02
2018-04-12T12:12:09.280Z,38.14
2018-04-12T12:13:09.443Z,38.10
2018-04-12T12:14:09.601Z,37.49
2018-04-12T12:15:09.756Z,36.33
2018-04-12T12:16:09.920Z,35.29
2018-04-12T12:17:10.077Z,34.90
2018-04-12T12:18:10.232Z,35.24
2018-04-12T12:19:10.395Z,35.66
2018-04-12T12:20:10.566Z,36.48
2018-04-12T12:21:10.720Z,36.20
2018-04-12T12:22:10.879Z,36.22
2018-04-12T12:23:11.047Z,36.15
2018-04-12T12:24:11.206Z,35.85
2018-04-12T12:25:11.372Z,35.47
2018-04-12T12:26:11.530Z,34.92
2018-04-12T12:27:11.697Z,34.55
2018-04-12T12:28:11.853Z,34.13
2018-04-12T12:29:12.007Z,33.95
2018-04-12T12:30:12.169Z,33.20
2018-04-12T12:31:12.328Z,32.50
2018-04-12T12:32:12.483Z,32.41
2018-04-12T12:33:12.641Z,31.97
2018-04-12T12:34:12.799Z,31.70
2018-04-12T12:35:12.951Z,31.17
2018-04-12T12:36:13.116Z,30.24
2018-04-12T12:37:13.306Z,30.22
2018-04-12T12:38:13.427Z,29.47
2018-04-12T12:39:13.582Z,28.96
2018-04-12T12:40:13.741Z,28.47
2018-04-12T12:41:13.899Z,28.56
2018-04-12T12:42:14.051Z,28.80
2018-04-12T12:43:14.213Z,28.47
2018-04-12T12:44:14.367Z,28.06
2018-04-12T12:45:14.522Z,27.83
2018-04-12T12:46:14.681Z,27.85
2018-04-12T12:47:14.830Z,27.90
2018-04-12T12:48:14.981Z,28.53
2018-04-12T12:49:15.138Z,29.49
2018-04-12T12:50:15.285Z,29.91
2018-04-12T12:51:15.440Z,30.29
2018-04-12T12:52:15.591Z,30.02
2018-04-12T12:53:15.750Z,29.96
2018-04-12T12:54:15.910Z,29.78